CheckWX is a tool to help pilots better visualize weather data.  It is not intended as a substitute for an official pre-flight weather briefing.

05:19:48 UTC

ESNO METAR
Örnsköldsvik Airport
Örnsköldsvik, Sweden
Current

30 mins ago

ESNO 200450Z 33015G27KT CAVOK M06/M14 Q0997
Observed
Feb-20 @ 04:50 UTC
Wind
  • 330° at 15 KTS
  • Gusting to 27 KTS
Visibility
10,000+ meters
Flight Rules
VFR
Cloud Levels
  • Clear skies
Temperature
-6°C / 21°F
Dewpoint
-14°C / 7°F
Humidity
54%
Altimeter
29.44" Hg
Pressure
996.92 hPa
Previous

60 mins ago

ESNO 200420Z 34017KT CAVOK M05/M14 Q0996
Observed
Feb-20 @ 04:20 UTC
Wind
  • 340° at 17 KTS
Visibility
10,000+ meters
Flight Rules
VFR
Cloud Levels
  • Clear skies
Temperature
-5°C / 23°F
Dewpoint
-14°C / 7°F
Humidity
50%
Altimeter
29.41" Hg
Pressure
995.92 hPa
Previous

1 hour ago

ESNO 200350Z AUTO 33020G32KT 9999 NCD M05/M13 Q0995
Observed
Feb-20 @ 03:50 UTC
Wind
  • 330° at 20 KTS
  • Gusting to 32 KTS
Visibility
10,000+ meters
Flight Rules
VFR
Cloud Levels
  • Clear skies
Temperature
-5°C / 23°F
Dewpoint
-13°C / 9°F
Humidity
54%
Altimeter
29.38" Hg
Pressure
994.92 hPa